sensor_id;sensor_type;location;lat;lon;timestamp;temperature;humidity
74178;DHT22;62540;48.456;-4.456;2023-06-26T00:02:11;20.49;59.38
74178;DHT22;62540;48.456;-4.456;2023-06-26T00:04:36;20.45;59.37
74178;DHT22;62540;48.456;-4.456;2023-06-26T00:07:03;20.43;59.43
74178;DHT22;62540;48.456;-4.456;2023-06-26T00:09:29;20.43;59.48
74178;DHT22;62540;48.456;-4.456;2023-06-26T00:11:54;20.39;59.52
74178;DHT22;62540;48.456;-4.456;2023-06-26T00:14:19;20.39;59.55
74178;DHT22;62540;48.456;-4.456;2023-06-26T00:16:46;20.33;59.69
74178;DHT22;62540;48.456;-4.456;2023-06-26T00:19:14;20.28;59.73
74178;DHT22;62540;48.456;-4.456;2023-06-26T00:21:40;20.28;59.76
74178;DHT22;62540;48.456;-4.456;2023-06-26T00:24:06;20.29;59.76
74178;DHT22;62540;48.456;-4.456;2023-06-26T00:26:31;20.29;59.77
74178;DHT22;62540;48.456;-4.456;2023-06-26T00:28:56;20.25;59.80
74178;DHT22;62540;48.456;-4.456;2023-06-26T00:31:22;20.22;59.86
74178;DHT22;62540;48.456;-4.456;2023-06-26T00:33:47;20.22;59.91
74178;DHT22;62540;48.456;-4.456;2023-06-26T00:36:12;20.20;59.90
74178;DHT22;62540;48.456;-4.456;2023-06-26T00:38:38;20.17;59.95
74178;DHT22;62540;48.456;-4.456;2023-06-26T00:41:04;20.17;59.98
74178;DHT22;62540;48.456;-4.456;2023-06-26T00:43:30;20.17;59.95
74178;DHT22;62540;48.456;-4.456;2023-06-26T00:45:55;20.14;59.94
74178;DHT22;62540;48.456;-4.456;2023-06-26T00:48:21;20.11;60.04
74178;DHT22;62540;48.456;-4.456;2023-06-26T00:50:46;20.07;60.12
74178;DHT22;62540;48.456;-4.456;2023-06-26T00:53:12;20.04;60.24
74178;DHT22;62540;48.456;-4.456;2023-06-26T00:55:37;20.01;60.34
74178;DHT22;62540;48.456;-4.456;2023-06-26T00:58:03;20.00;60.43
74178;DHT22;62540;48.456;-4.456;2023-06-26T01:00:29;19.95;60.53
74178;DHT22;62540;48.456;-4.456;2023-06-26T01:02:54;19.94;60.58
74178;DHT22;62540;48.456;-4.456;2023-06-26T01:05:25;19.95;60.59
74178;DHT22;62540;48.456;-4.456;2023-06-26T01:07:50;19.91;60.69
74178;DHT22;62540;48.456;-4.456;2023-06-26T01:10:16;19.91;60.61
74178;DHT22;62540;48.456;-4.456;2023-06-26T01:12:42;19.90;60.66
74178;DHT22;62540;48.456;-4.456;2023-06-26T01:15:08;19.87;60.80
74178;DHT22;62540;48.456;-4.456;2023-06-26T01:17:36;19.87;60.84
74178;DHT22;62540;48.456;-4.456;2023-06-26T01:20:05;19.81;60.97
74178;DHT22;62540;48.456;-4.456;2023-06-26T01:22:49;19.75;61.20
74178;DHT22;62540;48.456;-4.456;2023-06-26T01:25:52;19.74;61.54
74178;DHT22;62540;48.456;-4.456;2023-06-26T01:28:20;19.73;61.25
74178;DHT22;62540;48.456;-4.456;2023-06-26T01:30:46;19.73;61.37
74178;DHT22;62540;48.456;-4.456;2023-06-26T01:33:13;19.67;61.45
74178;DHT22;62540;48.456;-4.456;2023-06-26T01:35:39;19.67;61.57
74178;DHT22;62540;48.456;-4.456;2023-06-26T01:38:15;19.67;61.83
74178;DHT22;62540;48.456;-4.456;2023-06-26T01:40:41;19.66;61.71
74178;DHT22;62540;48.456;-4.456;2023-06-26T01:43:31;19.67;61.77
74178;DHT22;62540;48.456;-4.456;2023-06-26T01:46:18;19.64;62.22
74178;DHT22;62540;48.456;-4.456;2023-06-26T01:48:58;19.66;62.07
74178;DHT22;62540;48.456;-4.456;2023-06-26T01:51:31;19.62;61.99
74178;DHT22;62540;48.456;-4.456;2023-06-26T01:53:58;19.62;61.90
74178;DHT22;62540;48.456;-4.456;2023-06-26T01:56:26;19.59;61.94
74178;DHT22;62540;48.456;-4.456;2023-06-26T01:58:54;19.59;62.02
74178;DHT22;62540;48.456;-4.456;2023-06-26T02:01:20;19.54;61.92
74178;DHT22;62540;48.456;-4.456;2023-06-26T02:03:47;19.53;62.01
74178;DHT22;62540;48.456;-4.456;2023-06-26T02:06:13;19.52;62.07
74178;DHT22;62540;48.456;-4.456;2023-06-26T02:08:38;19.50;62.11
74178;DHT22;62540;48.456;-4.456;2023-06-26T02:11:03;19.47;62.19
74178;DHT22;62540;48.456;-4.456;2023-06-26T02:13:29;19.46;62.28
74178;DHT22;62540;48.456;-4.456;2023-06-26T02:15:54;19.45;62.32
74178;DHT22;62540;48.456;-4.456;2023-06-26T02:18:20;19.46;62.34
74178;DHT22;62540;48.456;-4.456;2023-06-26T02:20:47;19.42;62.40
74178;DHT22;62540;48.456;-4.456;2023-06-26T02:23:13;19.40;62.44
74178;DHT22;62540;48.456;-4.456;2023-06-26T02:25:38;19.37;62.46
74178;DHT22;62540;48.456;-4.456;2023-06-26T02:28:04;19.37;62.41
74178;DHT22;62540;48.456;-4.456;2023-06-26T02:30:29;19.40;62.36
74178;DHT22;62540;48.456;-4.456;2023-06-26T02:32:54;19.37;62.41
74178;DHT22;62540;48.456;-4.456;2023-06-26T02:35:20;19.37;62.46
74178;DHT22;62540;48.456;-4.456;2023-06-26T02:37:46;19.36;62.46
74178;DHT22;62540;48.456;-4.456;2023-06-26T02:40:12;19.35;62.49
74178;DHT22;62540;48.456;-4.456;2023-06-26T02:42:37;19.26;62.55
74178;DHT22;62540;48.456;-4.456;2023-06-26T02:45:03;19.30;62.55
74178;DHT22;62540;48.456;-4.456;2023-06-26T02:47:28;19.29;62.58
74178;DHT22;62540;48.456;-4.456;2023-06-26T02:49:54;19.23;62.56
74178;DHT22;62540;48.456;-4.456;2023-06-26T02:52:19;19.26;62.56
74178;DHT22;62540;48.456;-4.456;2023-06-26T02:54:45;19.26;62.57
74178;DHT22;62540;48.456;-4.456;2023-06-26T02:57:10;19.25;62.53
74178;DHT22;62540;48.456;-4.456;2023-06-26T02:59:36;19.23;62.55
74178;DHT22;62540;48.456;-4.456;2023-06-26T03:02:02;19.22;62.53
74178;DHT22;62540;48.456;-4.456;2023-06-26T03:04:27;19.16;62.61
74178;DHT22;62540;48.456;-4.456;2023-06-26T03:06:53;19.12;62.73
74178;DHT22;62540;48.456;-4.456;2023-06-26T03:09:18;19.11;62.74
74178;DHT22;62540;48.456;-4.456;2023-06-26T03:11:43;19.11;62.76
74178;DHT22;62540;48.456;-4.456;2023-06-26T03:14:09;19.06;62.77
74178;DHT22;62540;48.456;-4.456;2023-06-26T03:16:34;19.04;62.85
74178;DHT22;62540;48.456;-4.456;2023-06-26T03:18:59;19.04;62.85
74178;DHT22;62540;48.456;-4.456;2023-06-26T03:21:25;19.04;62.85
74178;DHT22;62540;48.456;-4.456;2023-06-26T03:23:50;19.02;62.86
74178;DHT22;62540;48.456;-4.456;2023-06-26T03:26:15;18.96;62.88
74178;DHT22;62540;48.456;-4.456;2023-06-26T03:28:41;18.96;62.86
74178;DHT22;62540;48.456;-4.456;2023-06-26T03:31:07;18.95;62.85
74178;DHT22;62540;48.456;-4.456;2023-06-26T03:33:32;18.92;62.91
74178;DHT22;62540;48.456;-4.456;2023-06-26T03:35:58;18.88;62.92
74178;DHT22;62540;48.456;-4.456;2023-06-26T03:38:24;18.88;62.86
74178;DHT22;62540;48.456;-4.456;2023-06-26T03:40:51;18.89;62.85
74178;DHT22;62540;48.456;-4.456;2023-06-26T03:43:16;18.85;62.72
74178;DHT22;62540;48.456;-4.456;2023-06-26T03:45:41;18.85;62.82
74178;DHT22;62540;48.456;-4.456;2023-06-26T03:48:07;18.85;62.82
74178;DHT22;62540;48.456;-4.456;2023-06-26T03:50:33;18.84;62.77
74178;DHT22;62540;48.456;-4.456;2023-06-26T03:52:58;18.85;62.74
74178;DHT22;62540;48.456;-4.456;2023-06-26T03:55:24;18.83;62.66
74178;DHT22;62540;48.456;-4.456;2023-06-26T03:57:50;18.79;62.73
74178;DHT22;62540;48.456;-4.456;2023-06-26T04:00:15;18.79;62.73
74178;DHT22;62540;48.456;-4.456;2023-06-26T04:02:41;18.79;62.77
74178;DHT22;62540;48.456;-4.456;2023-06-26T04:05:06;18.77;62.75
74178;DHT22;62540;48.456;-4.456;2023-06-26T04:07:32;18.77;62.72
74178;DHT22;62540;48.456;-4.456;2023-06-26T04:09:57;18.72;62.73
74178;DHT22;62540;48.456;-4.456;2023-06-26T04:12:23;18.72;62.73
74178;DHT22;62540;48.456;-4.456;2023-06-26T04:14:48;18.71;62.74
74178;DHT22;62540;48.456;-4.456;2023-06-26T04:17:14;18.71;62.66
74178;DHT22;62540;48.456;-4.456;2023-06-26T04:19:39;18.72;62.62
74178;DHT22;62540;48.456;-4.456;2023-06-26T04:22:05;18.68;62.62
74178;DHT22;62540;48.456;-4.456;2023-06-26T04:24:30;18.67;62.65
74178;DHT22;62540;48.456;-4.456;2023-06-26T04:26:56;18.67;62.59
74178;DHT22;62540;48.456;-4.456;2023-06-26T04:29:22;18.65;62.60
74178;DHT22;62540;48.456;-4.456;2023-06-26T04:31:51;18.64;62.64
74178;DHT22;62540;48.456;-4.456;2023-06-26T04:34:16;18.65;62.67
74178;DHT22;62540;48.456;-4.456;2023-06-26T04:36:41;18.64;62.79
74178;DHT22;62540;48.456;-4.456;2023-06-26T04:39:11;18.64;62.79
74178;DHT22;62540;48.456;-4.456;2023-06-26T04:41:37;18.65;62.84
74178;DHT22;62540;48.456;-4.456;2023-06-26T04:44:02;18.65;62.87
74178;DHT22;62540;48.456;-4.456;2023-06-26T04:46:28;18.65;62.93
74178;DHT22;62540;48.456;-4.456;2023-06-26T04:48:53;18.68;62.93
74178;DHT22;62540;48.456;-4.456;2023-06-26T04:51:19;18.71;62.91
74178;DHT22;62540;48.456;-4.456;2023-06-26T04:53:45;18.75;62.87
74178;DHT22;62540;48.456;-4.456;2023-06-26T04:56:11;18.81;62.85
74178;DHT22;62540;48.456;-4.456;2023-06-26T04:58:37;18.87;62.81
74178;DHT22;62540;48.456;-4.456;2023-06-26T05:01:03;18.88;62.81
74178;DHT22;62540;48.456;-4.456;2023-06-26T05:03:32;18.92;62.79
74178;DHT22;62540;48.456;-4.456;2023-06-26T05:05:57;18.92;62.88
74178;DHT22;62540;48.456;-4.456;2023-06-26T05:08:24;18.99;62.96
74178;DHT22;62540;48.456;-4.456;2023-06-26T05:10:52;19.08;63.03
74178;DHT22;62540;48.456;-4.456;2023-06-26T05:13:18;19.23;63.12
74178;DHT22;62540;48.456;-4.456;2023-06-26T05:15:45;19.43;63.02
74178;DHT22;62540;48.456;-4.456;2023-06-26T05:18:12;19.59;62.76
74178;DHT22;62540;48.456;-4.456;2023-06-26T05:20:38;19.78;62.61
74178;DHT22;62540;48.456;-4.456;2023-06-26T05:23:04;19.95;62.34
74178;DHT22;62540;48.456;-4.456;2023-06-26T05:25:30;20.15;61.99
74178;DHT22;62540;48.456;-4.456;2023-06-26T05:27:57;20.43;61.74
74178;DHT22;62540;48.456;-4.456;2023-06-26T05:30:24;20.72;61.53
74178;DHT22;62540;48.456;-4.456;2023-06-26T05:32:51;20.99;61.17
74178;DHT22;62540;48.456;-4.456;2023-06-26T05:35:18;21.31;60.89
74178;DHT22;62540;48.456;-4.456;2023-06-26T05:37:45;21.62;60.50
74178;DHT22;62540;48.456;-4.456;2023-06-26T05:40:12;21.92;59.93
74178;DHT22;62540;48.456;-4.456;2023-06-26T05:42:38;22.18;59.44
74178;DHT22;62540;48.456;-4.456;2023-06-26T05:45:03;22.48;59.08
74178;DHT22;62540;48.456;-4.456;2023-06-26T05:47:29;22.82;58.62
74178;DHT22;62540;48.456;-4.456;2023-06-26T05:49:54;23.06;58.06
74178;DHT22;62540;48.456;-4.456;2023-06-26T05:52:20;23.27;57.46
74178;DHT22;62540;48.456;-4.456;2023-06-26T05:54:46;23.57;56.93
74178;DHT22;62540;48.456;-4.456;2023-06-26T05:57:12;23.90;56.53
74178;DHT22;62540;48.456;-4.456;2023-06-26T05:59:39;24.19;56.06
74178;DHT22;62540;48.456;-4.456;2023-06-26T06:02:06;24.56;55.57
74178;DHT22;62540;48.456;-4.456;2023-06-26T06:04:31;24.86;54.89
74178;DHT22;62540;48.456;-4.456;2023-06-26T06:06:56;25.16;54.41
74178;DHT22;62540;48.456;-4.456;2023-06-26T06:09:22;25.37;53.66
74178;DHT22;62540;48.456;-4.456;2023-06-26T06:11:47;25.52;53.27
74178;DHT22;62540;48.456;-4.456;2023-06-26T06:14:13;25.71;52.83
74178;DHT22;62540;48.456;-4.456;2023-06-26T06:16:38;25.79;52.07
74178;DHT22;62540;48.456;-4.456;2023-06-26T06:19:03;25.85;51.81
74178;DHT22;62540;48.456;-4.456;2023-06-26T06:21:32;25.86;51.35
74178;DHT22;62540;48.456;-4.456;2023-06-26T06:23:57;26.06;51.18
74178;DHT22;62540;48.456;-4.456;2023-06-26T06:26:22;26.30;50.54
74178;DHT22;62540;48.456;-4.456;2023-06-26T06:28:48;26.50;50.09
74178;DHT22;62540;48.456;-4.456;2023-06-26T06:31:13;26.58;49.37
74178;DHT22;62540;48.456;-4.456;2023-06-26T06:33:38;26.81;49.30
74178;DHT22;62540;48.456;-4.456;2023-06-26T06:36:04;26.96;48.95
74178;DHT22;62540;48.456;-4.456;2023-06-26T06:38:29;27.23;48.92
74178;DHT22;62540;48.456;-4.456;2023-06-26T06:40:55;27.42;48.07
74178;DHT22;62540;48.456;-4.456;2023-06-26T06:43:20;27.45;48.02
74178;DHT22;62540;48.456;-4.456;2023-06-26T06:45:46;27.64;47.95
74178;DHT22;62540;48.456;-4.456;2023-06-26T06:48:11;27.87;47.58
74178;DHT22;62540;48.456;-4.456;2023-06-26T06:50:36;28.08;46.88
74178;DHT22;62540;48.456;-4.456;2023-06-26T06:53:02;28.24;45.83
74178;DHT22;62540;48.456;-4.456;2023-06-26T06:55:27;28.02;45.98
74178;DHT22;62540;48.456;-4.456;2023-06-26T06:57:52;28.04;46.27
74178;DHT22;62540;48.456;-4.456;2023-06-26T07:00:18;28.21;46.16
74178;DHT22;62540;48.456;-4.456;2023-06-26T07:02:45;28.38;45.53
74178;DHT22;62540;48.456;-4.456;2023-06-26T07:05:11;28.27;45.29
74178;DHT22;62540;48.456;-4.456;2023-06-26T07:07:37;28.41;45.48
74178;DHT22;62540;48.456;-4.456;2023-06-26T07:10:11;28.59;44.94
74178;DHT22;62540;48.456;-4.456;2023-06-26T07:12:37;28.70;44.98
74178;DHT22;62540;48.456;-4.456;2023-06-26T07:15:04;28.77;44.42
74178;DHT22;62540;48.456;-4.456;2023-06-26T07:17:33;28.84;44.32
74178;DHT22;62540;48.456;-4.456;2023-06-26T07:20:00;28.82;44.51
74178;DHT22;62540;48.456;-4.456;2023-06-26T07:22:26;28.93;44.25
74178;DHT22;62540;48.456;-4.456;2023-06-26T07:24:52;29.13;44.33
74178;DHT22;62540;48.456;-4.456;2023-06-26T07:27:18;29.35;41.85
74178;DHT22;62540;48.456;-4.456;2023-06-26T07:29:44;29.35;41.01
74178;DHT22;62540;48.456;-4.456;2023-06-26T07:32:10;29.27;43.37
74178;DHT22;62540;48.456;-4.456;2023-06-26T07:34:35;29.37;43.41
74178;DHT22;62540;48.456;-4.456;2023-06-26T07:37:00;29.62;43.08
74178;DHT22;62540;48.456;-4.456;2023-06-26T07:39:26;29.79;42.73
74178;DHT22;62540;48.456;-4.456;2023-06-26T07:41:51;29.81;42.38
74178;DHT22;62540;48.456;-4.456;2023-06-26T07:44:17;29.71;42.14
74178;DHT22;62540;48.456;-4.456;2023-06-26T07:46:43;29.21;40.99
74178;DHT22;62540;48.456;-4.456;2023-06-26T07:49:10;28.93;42.72
74178;DHT22;62540;48.456;-4.456;2023-06-26T07:51:35;29.08;42.34
74178;DHT22;62540;48.456;-4.456;2023-06-26T07:54:01;29.30;41.88
74178;DHT22;62540;48.456;-4.456;2023-06-26T07:56:26;29.13;42.25
74178;DHT22;62540;48.456;-4.456;2023-06-26T07:58:51;28.99;41.57
74178;DHT22;62540;48.456;-4.456;2023-06-26T08:01:17;29.28;41.77
74178;DHT22;62540;48.456;-4.456;2023-06-26T08:03:43;29.64;41.97
74178;DHT22;62540;48.456;-4.456;2023-06-26T08:06:08;29.89;39.27
74178;DHT22;62540;48.456;-4.456;2023-06-26T08:08:34;30.02;40.40
74178;DHT22;62540;48.456;-4.456;2023-06-26T08:10:59;29.90;39.53
74178;DHT22;62540;48.456;-4.456;2023-06-26T08:13:25;29.61;40.37
74178;DHT22;62540;48.456;-4.456;2023-06-26T08:15:50;29.24;40.71
74178;DHT22;62540;48.456;-4.456;2023-06-26T08:18:16;29.03;41.04
74178;DHT22;62540;48.456;-4.456;2023-06-26T08:20:42;28.83;40.81
74178;DHT22;62540;48.456;-4.456;2023-06-26T08:23:07;28.62;41.04
74178;DHT22;62540;48.456;-4.456;2023-06-26T08:25:32;28.42;41.63
74178;DHT22;62540;48.456;-4.456;2023-06-26T08:27:58;28.67;41.51
74178;DHT22;62540;48.456;-4.456;2023-06-26T08:30:23;29.07;41.34
74178;DHT22;62540;48.456;-4.456;2023-06-26T08:32:55;29.33;41.47
74178;DHT22;62540;48.456;-4.456;2023-06-26T08:35:21;29.79;41.11
74178;DHT22;62540;48.456;-4.456;2023-06-26T08:37:46;29.96;39.23
74178;DHT22;62540;48.456;-4.456;2023-06-26T08:40:12;30.24;39.89
74178;DHT22;62540;48.456;-4.456;2023-06-26T08:42:37;30.45;38.12
74178;DHT22;62540;48.456;-4.456;2023-06-26T08:45:03;30.63;38.56
74178;DHT22;62540;48.456;-4.456;2023-06-26T08:47:29;30.64;38.39
74178;DHT22;62540;48.456;-4.456;2023-06-26T08:50:07;30.74;37.13
74178;DHT22;62540;48.456;-4.456;2023-06-26T08:52:37;31.00;38.37
74178;DHT22;62540;48.456;-4.456;2023-06-26T08:55:09;31.32;37.95
74178;DHT22;62540;48.456;-4.456;2023-06-26T08:57:36;31.16;36.92
74178;DHT22;62540;48.456;-4.456;2023-06-26T09:00:03;30.71;37.24
74178;DHT22;62540;48.456;-4.456;2023-06-26T09:02:28;30.22;37.69
74178;DHT22;62540;48.456;-4.456;2023-06-26T09:04:54;30.47;38.40
74178;DHT22;62540;48.456;-4.456;2023-06-26T09:07:20;30.88;37.53
74178;DHT22;62540;48.456;-4.456;2023-06-26T09:09:46;30.87;37.90
74178;DHT22;62540;48.456;-4.456;2023-06-26T09:12:11;30.82;38.03
74178;DHT22;62540;48.456;-4.456;2023-06-26T09:14:38;31.05;37.67
74178;DHT22;62540;48.456;-4.456;2023-06-26T09:17:03;31.49;37.91
74178;DHT22;62540;48.456;-4.456;2023-06-26T09:19:29;31.87;34.90
74178;DHT22;62540;48.456;-4.456;2023-06-26T09:21:55;32.03;36.52
74178;DHT22;62540;48.456;-4.456;2023-06-26T09:24:21;32.14;36.11
74178;DHT22;62540;48.456;-4.456;2023-06-26T09:26:47;32.32;36.83
74178;DHT22;62540;48.456;-4.456;2023-06-26T09:29:13;31.76;36.18
74178;DHT22;62540;48.456;-4.456;2023-06-26T09:31:39;30.98;36.97
74178;DHT22;62540;48.456;-4.456;2023-06-26T09:34:05;30.39;37.32
74178;DHT22;62540;48.456;-4.456;2023-06-26T09:36:32;30.09;38.03
74178;DHT22;62540;48.456;-4.456;2023-06-26T09:39:04;30.13;37.73
74178;DHT22;62540;48.456;-4.456;2023-06-26T09:41:32;30.24;37.96
74178;DHT22;62540;48.456;-4.456;2023-06-26T09:44:01;30.63;38.16
74178;DHT22;62540;48.456;-4.456;2023-06-26T09:46:28;30.98;37.96
74178;DHT22;62540;48.456;-4.456;2023-06-26T09:51:31;30.89;36.86
74178;DHT22;62540;48.456;-4.456;2023-06-26T09:53:57;31.09;36.81
74178;DHT22;62540;48.456;-4.456;2023-06-26T09:56:22;31.35;35.39
74178;DHT22;62540;48.456;-4.456;2023-06-26T09:58:49;31.63;36.30
74178;DHT22;62540;48.456;-4.456;2023-06-26T10:01:14;32.10;35.94
74178;DHT22;62540;48.456;-4.456;2023-06-26T10:03:40;32.03;35.40
74178;DHT22;62540;48.456;-4.456;2023-06-26T10:06:05;31.73;35.75
74178;DHT22;62540;48.456;-4.456;2023-06-26T10:08:33;31.94;35.38
74178;DHT22;62540;48.456;-4.456;2023-06-26T10:10:59;32.28;34.86
74178;DHT22;62540;48.456;-4.456;2023-06-26T10:13:31;32.29;35.07
74178;DHT22;62540;48.456;-4.456;2023-06-26T10:16:00;32.08;35.48
74178;DHT22;62540;48.456;-4.456;2023-06-26T10:18:27;31.67;34.78
74178;DHT22;62540;48.456;-4.456;2023-06-26T10:20:55;31.70;35.07
74178;DHT22;62540;48.456;-4.456;2023-06-26T10:23:23;31.69;34.36
74178;DHT22;62540;48.456;-4.456;2023-06-26T10:25:51;31.84;34.08
74178;DHT22;62540;48.456;-4.456;2023-06-26T10:28:18;32.14;34.95
74178;DHT22;62540;48.456;-4.456;2023-06-26T10:30:46;32.32;34.34
74178;DHT22;62540;48.456;-4.456;2023-06-26T10:33:12;32.42;34.46
74178;DHT22;62540;48.456;-4.456;2023-06-26T10:35:43;32.31;34.38
74178;DHT22;62540;48.456;-4.456;2023-06-26T10:38:08;32.24;34.01
74178;DHT22;62540;48.456;-4.456;2023-06-26T10:40:47;32.10;33.79
74178;DHT22;62540;48.456;-4.456;2023-06-26T10:43:16;31.94;34.13
74178;DHT22;62540;48.456;-4.456;2023-06-26T10:45:48;31.74;33.56
74178;DHT22;62540;48.456;-4.456;2023-06-26T10:48:18;31.62;33.75
74178;DHT22;62540;48.456;-4.456;2023-06-26T10:50:47;31.35;34.46
74178;DHT22;62540;48.456;-4.456;2023-06-26T10:56:04;31.28;34.55
74178;DHT22;62540;48.456;-4.456;2023-06-26T11:01:18;31.94;33.99
74178;DHT22;62540;48.456;-4.456;2023-06-26T11:03:47;32.32;34.41
74178;DHT22;62540;48.456;-4.456;2023-06-26T11:06:19;32.79;33.61
74178;DHT22;62540;48.456;-4.456;2023-06-26T11:08:46;33.02;32.76
74178;DHT22;62540;48.456;-4.456;2023-06-26T11:11:15;33.24;32.86
74178;DHT22;62540;48.456;-4.456;2023-06-26T11:13:41;33.41;32.79
74178;DHT22;62540;48.456;-4.456;2023-06-26T11:16:07;33.75;33.13
74178;DHT22;62540;48.456;-4.456;2023-06-26T11:18:32;33.84;32.43
74178;DHT22;62540;48.456;-4.456;2023-06-26T11:21:24;33.54;31.54
74178;DHT22;62540;48.456;-4.456;2023-06-26T11:23:50;33.44;32.57
74178;DHT22;62540;48.456;-4.456;2023-06-26T11:26:18;33.33;32.80
74178;DHT22;62540;48.456;-4.456;2023-06-26T11:28:51;33.11;32.67
74178;DHT22;62540;48.456;-4.456;2023-06-26T11:31:27;32.79;32.86
74178;DHT22;62540;48.456;-4.456;2023-06-26T11:33:55;32.52;32.81
74178;DHT22;62540;48.456;-4.456;2023-06-26T11:36:25;32.29;33.05
74178;DHT22;62540;48.456;-4.456;2023-06-26T11:38:55;32.29;33.75
74178;DHT22;62540;48.456;-4.456;2023-06-26T11:41:21;32.27;33.84
74178;DHT22;62540;48.456;-4.456;2023-06-26T11:43:47;32.24;34.10
74178;DHT22;62540;48.456;-4.456;2023-06-26T11:46:12;32.21;34.20
74178;DHT22;62540;48.456;-4.456;2023-06-26T11:48:41;31.88;34.35
74178;DHT22;62540;48.456;-4.456;2023-06-26T11:51:06;31.78;34.59
74178;DHT22;62540;48.456;-4.456;2023-06-26T11:53:39;31.90;34.67
74178;DHT22;62540;48.456;-4.456;2023-06-26T11:56:11;31.87;34.34
74178;DHT22;62540;48.456;-4.456;2023-06-26T11:58:59;31.87;34.12
74178;DHT22;62540;48.456;-4.456;2023-06-26T12:01:43;31.73;34.22
74178;DHT22;62540;48.456;-4.456;2023-06-26T12:04:15;31.59;34.49
74178;DHT22;62540;48.456;-4.456;2023-06-26T12:06:52;31.63;34.94
74178;DHT22;62540;48.456;-4.456;2023-06-26T12:09:23;31.69;34.85
74178;DHT22;62540;48.456;-4.456;2023-06-26T12:11:54;31.60;34.30
74178;DHT22;62540;48.456;-4.456;2023-06-26T12:14:22;31.18;34.81
74178;DHT22;62540;48.456;-4.456;2023-06-26T12:16:47;30.99;35.30
74178;DHT22;62540;48.456;-4.456;2023-06-26T12:19:13;30.77;35.48
74178;DHT22;62540;48.456;-4.456;2023-06-26T12:24:19;30.67;35.18
74178;DHT22;62540;48.456;-4.456;2023-06-26T12:26:47;30.53;35.42
74178;DHT22;62540;48.456;-4.456;2023-06-26T12:29:14;30.47;35.42
74178;DHT22;62540;48.456;-4.456;2023-06-26T12:31:45;30.16;35.65
74178;DHT22;62540;48.456;-4.456;2023-06-26T12:34:13;30.17;36.20
74178;DHT22;62540;48.456;-4.456;2023-06-26T12:36:43;30.44;36.11
74178;DHT22;62540;48.456;-4.456;2023-06-26T12:39:10;30.75;35.59
74178;DHT22;62540;48.456;-4.456;2023-06-26T12:42:02;30.58;35.24
74178;DHT22;62540;48.456;-4.456;2023-06-26T12:44:30;30.54;35.98
74178;DHT22;62540;48.456;-4.456;2023-06-26T12:46:59;30.43;35.77
74178;DHT22;62540;48.456;-4.456;2023-06-26T12:49:38;30.17;35.97
74178;DHT22;62540;48.456;-4.456;2023-06-26T12:52:06;30.03;36.57
74178;DHT22;62540;48.456;-4.456;2023-06-26T12:54:33;30.14;36.70
74178;DHT22;62540;48.456;-4.456;2023-06-26T12:56:59;30.24;36.62
74178;DHT22;62540;48.456;-4.456;2023-06-26T12:59:24;30.31;36.38
74178;DHT22;62540;48.456;-4.456;2023-06-26T13:01:50;30.44;36.48
74178;DHT22;62540;48.456;-4.456;2023-06-26T13:04:15;30.45;36.67
74178;DHT22;62540;48.456;-4.456;2023-06-26T13:06:41;30.47;36.42
74178;DHT22;62540;48.456;-4.456;2023-06-26T13:09:06;30.39;36.64
74178;DHT22;62540;48.456;-4.456;2023-06-26T13:11:33;30.16;36.58
74178;DHT22;62540;48.456;-4.456;2023-06-26T13:13:59;30.20;36.40
74178;DHT22;62540;48.456;-4.456;2023-06-26T13:16:24;30.08;36.42
74178;DHT22;62540;48.456;-4.456;2023-06-26T13:18:50;30.00;36.38
74178;DHT22;62540;48.456;-4.456;2023-06-26T13:21:16;29.92;36.60
74178;DHT22;62540;48.456;-4.456;2023-06-26T13:23:42;29.88;36.68
74178;DHT22;62540;48.456;-4.456;2023-06-26T13:26:08;29.86;36.79
74178;DHT22;62540;48.456;-4.456;2023-06-26T13:28:33;29.99;36.58
74178;DHT22;62540;48.456;-4.456;2023-06-26T13:30:58;30.09;36.48
74178;DHT22;62540;48.456;-4.456;2023-06-26T13:33:24;30.08;35.64
74178;DHT22;62540;48.456;-4.456;2023-06-26T13:35:52;30.02;36.37
74178;DHT22;62540;48.456;-4.456;2023-06-26T13:38:22;30.06;37.03
74178;DHT22;62540;48.456;-4.456;2023-06-26T13:40:54;30.03;37.25
74178;DHT22;62540;48.456;-4.456;2023-06-26T13:43:22;30.16;37.34
74178;DHT22;62540;48.456;-4.456;2023-06-26T13:45:51;30.19;36.96
74178;DHT22;62540;48.456;-4.456;2023-06-26T13:48:16;30.10;36.88
74178;DHT22;62540;48.456;-4.456;2023-06-26T13:50:42;29.86;36.92
74178;DHT22;62540;48.456;-4.456;2023-06-26T13:53:07;29.71;37.08
74178;DHT22;62540;48.456;-4.456;2023-06-26T13:55:34;29.38;37.38
74178;DHT22;62540;48.456;-4.456;2023-06-26T13:57:59;29.14;38.03
74178;DHT22;62540;48.456;-4.456;2023-06-26T14:00:26;29.03;38.30
74178;DHT22;62540;48.456;-4.456;2023-06-26T14:02:52;29.07;38.33
74178;DHT22;62540;48.456;-4.456;2023-06-26T14:05:17;29.04;38.87
74178;DHT22;62540;48.456;-4.456;2023-06-26T14:07:44;29.03;38.67
74178;DHT22;62540;48.456;-4.456;2023-06-26T14:10:09;28.93;38.82
74178;DHT22;62540;48.456;-4.456;2023-06-26T14:12:35;28.99;38.95
74178;DHT22;62540;48.456;-4.456;2023-06-26T14:15:00;29.02;38.89
74178;DHT22;62540;48.456;-4.456;2023-06-26T14:17:26;28.96;38.92
74178;DHT22;62540;48.456;-4.456;2023-06-26T14:19:54;28.99;39.40
74178;DHT22;62540;48.456;-4.456;2023-06-26T14:22:19;29.15;39.06
74178;DHT22;62540;48.456;-4.456;2023-06-26T14:24:45;29.14;38.98
74178;DHT22;62540;48.456;-4.456;2023-06-26T14:27:10;28.99;39.35
74178;DHT22;62540;48.456;-4.456;2023-06-26T14:29:36;28.90;39.42
74178;DHT22;62540;48.456;-4.456;2023-06-26T14:32:02;28.56;39.74
74178;DHT22;62540;48.456;-4.456;2023-06-26T14:34:28;28.29;40.63
74178;DHT22;62540;48.456;-4.456;2023-06-26T14:36:53;28.19;40.88
74178;DHT22;62540;48.456;-4.456;2023-06-26T14:39:19;28.19;41.40
74178;DHT22;62540;48.456;-4.456;2023-06-26T14:41:44;28.04;41.19
74178;DHT22;62540;48.456;-4.456;2023-06-26T14:44:09;27.97;41.52
74178;DHT22;62540;48.456;-4.456;2023-06-26T14:46:36;28.07;41.49
74178;DHT22;62540;48.456;-4.456;2023-06-26T14:49:02;28.24;41.22
74178;DHT22;62540;48.456;-4.456;2023-06-26T14:51:28;28.39;40.75
74178;DHT22;62540;48.456;-4.456;2023-06-26T14:53:54;28.53;40.61
74178;DHT22;62540;48.456;-4.456;2023-06-26T14:56:19;28.60;39.91
74178;DHT22;62540;48.456;-4.456;2023-06-26T14:58:44;28.55;39.17
74178;DHT22;62540;48.456;-4.456;2023-06-26T15:01:12;28.49;39.37
74178;DHT22;62540;48.456;-4.456;2023-06-26T15:03:40;28.11;40.01
74178;DHT22;62540;48.456;-4.456;2023-06-26T15:06:05;27.97;40.47
74178;DHT22;62540;48.456;-4.456;2023-06-26T15:08:31;28.00;40.77
74178;DHT22;62540;48.456;-4.456;2023-06-26T15:10:56;28.00;40.55
74178;DHT22;62540;48.456;-4.456;2023-06-26T15:13:21;28.07;39.75
74178;DHT22;62540;48.456;-4.456;2023-06-26T15:15:47;28.18;39.85
74178;DHT22;62540;48.456;-4.456;2023-06-26T15:18:12;28.41;39.93
74178;DHT22;62540;48.456;-4.456;2023-06-26T15:20:38;28.48;40.06
74178;DHT22;62540;48.456;-4.456;2023-06-26T15:23:03;28.41;40.05
74178;DHT22;62540;48.456;-4.456;2023-06-26T15:25:28;28.34;40.24